• Join FlightAware (Why Join?)
  • Login
  • US Flag 
02:01AM EDT


 

Airport Tracker/Info


-or-


 

Live Flight TrackerFlight Track Log ✈ SWA1046 ✈ 24-Apr-2013 ✈ KDAL - KOKC

Flight Track Log - Related Links

Times and Time Zones

All times are in EDT time to prevent confusion due to time zone crossing. See the SWA1046 flight status page for this flight to view local times or setup timezone preferences in your user account.

Time Position Orientation Groundspeed Altitude Reporting Facility
EDT Latitude Longitude Course Direction KTS MPH feet Rate Location/Type
04:42PM 32.8667 -96.8667 351° North 157 181 1,900  Level Dallas / Fort Worth TRACON
04:43PM 32.9167 -96.9333 312° West 204 235 4,600 2,760 Climbing Dallas / Fort Worth TRACON
04:44PM 32.9500 -96.9833 308° West 215 247 8,100 3,120 Climbing Dallas / Fort Worth TRACON
04:45PM 33.0000 -97.0167 331° Northwest 257 296 10,600 2,580 Climbing Dallas / Fort Worth TRACON
04:48PM 33.2691 -96.9405 351° North  Level FlightAware Approximate
04:48PM 33.1711 -97.0808 343° North 331 381 16,400  Level Fort Worth Center
04:49PM 33.2839 -97.0928 355° North 365 420 19,200 2,700 Climbing Fort Worth Center
04:50PM 33.3944 -97.1050 355° North 390 449 21,900 2,580 Climbing Fort Worth Center
04:51PM 33.5114 -97.1019 North 401 461 24,400 2,520 Climbing Fort Worth Center
04:52PM 33.6261 -97.0892 North 409 471 27,000 1,260 Climbing Fort Worth Center
04:53PM 33.7283 -97.0764 North 409 471 27,000 -480 Level Fort Worth Center
04:54PM 33.8369 -97.0608 North 403 464 26,100 -960 Descending Fort Worth Center
04:55PM 33.9433 -97.0506 North 393 452 25,100 -1,080 Descending Fort Worth Center
04:56PM 34.0475 -97.0350 North 377 434 24,000 -1,020 Descending Fort Worth Center
04:57PM 34.1414 -97.0244 North 352 405 23,100 -960 Descending Fort Worth Center
04:58PM 34.2417 -97.0117 North 347 399 22,100 -600 Descending Fort Worth Center
04:59PM 34.3397 -96.9986 North 347 399 22,000 -600 Descending Fort Worth Center
05:00PM 34.4333 -96.9931 North 347 399 21,000 -1,740 Descending Fort Worth Center
05:01PM 34.5172 -97.0456 333° Northwest 330 380 18,600 -1,860 Descending Fort Worth Center
05:02PM 34.5922 -97.0956 331° Northwest 319 367 17,300 -1,740 Descending Fort Worth Center
05:03PM 34.6675 -97.1483 330° Northwest 313 360 15,200 -1,920 Descending Fort Worth Center
05:03PM 34.7136 -97.1736 336° Northwest 305 351 14,500 -1,440 Descending Fort Worth Center
05:04PM 34.7406 -97.1961 326° Northwest 307 353 13,800 -1,740 Descending Fort Worth Center
05:04PM 34.7719 -97.2164 332° Northwest 289 333 13,100 -1,620 Descending Fort Worth Center
05:05PM 34.8094 -97.2417 331° Northwest 296 341 12,200 -1,560 Descending Fort Worth Center
05:05PM 34.8450 -97.2642 333° Northwest 281 323 11,400 -1,500 Descending Fort Worth Center
05:06PM 34.8764 -97.2894 327° Northwest 290 334 10,700 -1,500 Descending Fort Worth Center
05:06PM 34.9119 -97.3097 335° Northwest 275 316 9,900 -1,500 Descending Fort Worth Center
05:07PM 34.9453 -97.3300 333° Northwest 285 328 9,200 -1,560 Descending Fort Worth Center
05:07PM 34.9767 -97.3478 335° Northwest 271 312 8,500 -1,500 Descending Fort Worth Center
05:08PM 35.0142 -97.3706 334° Northwest 280 322 7,700 -1,560 Descending Fort Worth Center
05:08PM 35.0369 -97.3856 332° Northwest 271 312 7,100 -1,500 Descending Fort Worth Center
05:09PM 35.0808 -97.4161 330° Northwest 274 315 6,200 -1,440 Descending Fort Worth Center
05:09PM 35.1017 -97.4339 325° Northwest 266 306 5,700 -1,320 Descending Fort Worth Center
05:10PM 35.1372 -97.4669 323° Northwest 263 303 4,900 -1,320 Descending Fort Worth Center
05:10PM 35.1600 -97.4847 327° Northwest 258 297 4,400 -900 Descending Fort Worth Center
05:11PM 35.1956 -97.5178 323° Northwest 263 303 4,000 -420 Descending Fort Worth Center
05:11PM 35.2183 -97.5406 321° Northwest 248 285 4,000 -420 Level Fort Worth Center
05:12PM 35.2497 -97.5636 329° Northwest 252 290 3,600 -540 Descending Fort Worth Center
05:12PM 35.2725 -97.5864 321° Northwest 209 241 3,400 -600 Descending Fort Worth Center
05:13PM 35.2933 -97.6017 329° Northwest 225 259 3,000 -840 Descending Fort Worth Center
05:14PM 35.3331 -97.6069 354° North 188 216 2,100 -840 Descending Fort Worth Center
05:15PM 35.3728 -97.6069 360° North 146 168 1,400 -480 Descending Fort Worth Center
05:16PM 35.4122 -97.6197 345° North 146 168 1,200 -240 Descending Fort Worth Center
05:20PM 35.3931 -97.6008 141° Southeast  Level Estimated